Terminal Aerodrome Forecast
Issued by NWS

Home | Current Version | Previous Version | Text Only | Print | Product List | Glossary On
Versions: 1 2 3 4 5 6 7 8 9 10 11 12 13 14 15 16 17
000
FTUS45 KMSO 241759 AAA
TAFSMN
TAF AMD
KSMN 241759Z 2418/2518 01003KT P6SM VCSH SCT010 BKN030
      TEMPO 2418/2420 OVC010
     FM242000 03004KT P6SM SCT080
     FM250100 18003KT P6SM SKC
      AMD LTD TO CLD VIS AND WIND=

USA.gov is the U.S. government's official web portal to all federal, state and local government web resources and services.